sensor_id;sensor_type;location;lat;lon;timestamp;temperature;humidity
17200;DHT22;8716;52.268;20.968;2022-09-01T00:00:30;15.30;99.90
17200;DHT22;8716;52.268;20.968;2022-09-01T00:02:58;15.30;99.90
17200;DHT22;8716;52.268;20.968;2022-09-01T00:05:27;15.30;99.90
17200;DHT22;8716;52.268;20.968;2022-09-01T00:07:58;15.20;99.90
17200;DHT22;8716;52.268;20.968;2022-09-01T00:10:28;15.20;99.90
17200;DHT22;8716;52.268;20.968;2022-09-01T00:12:56;15.20;99.90
17200;DHT22;8716;52.268;20.968;2022-09-01T00:15:26;15.10;99.90
17200;DHT22;8716;52.268;20.968;2022-09-01T00:17:54;15.20;99.90
17200;DHT22;8716;52.268;20.968;2022-09-01T00:20:22;15.10;99.90
17200;DHT22;8716;52.268;20.968;2022-09-01T00:22:51;15.10;99.90
17200;DHT22;8716;52.268;20.968;2022-09-01T00:25:19;15.10;99.90
17200;DHT22;8716;52.268;20.968;2022-09-01T00:27:49;15.00;99.90
17200;DHT22;8716;52.268;20.968;2022-09-01T00:30:18;15.00;99.90
17200;DHT22;8716;52.268;20.968;2022-09-01T00:32:47;14.90;99.90
17200;DHT22;8716;52.268;20.968;2022-09-01T00:35:17;14.90;99.90
17200;DHT22;8716;52.268;20.968;2022-09-01T00:37:45;14.90;99.90
17200;DHT22;8716;52.268;20.968;2022-09-01T00:40:15;14.80;99.90
17200;DHT22;8716;52.268;20.968;2022-09-01T00:42:45;14.70;99.90
17200;DHT22;8716;52.268;20.968;2022-09-01T00:45:14;14.80;99.90
17200;DHT22;8716;52.268;20.968;2022-09-01T00:47:43;14.70;99.90
17200;DHT22;8716;52.268;20.968;2022-09-01T00:50:14;14.70;99.90
17200;DHT22;8716;52.268;20.968;2022-09-01T00:52:49;14.70;99.90
17200;DHT22;8716;52.268;20.968;2022-09-01T00:55:22;14.60;99.90
17200;DHT22;8716;52.268;20.968;2022-09-01T00:57:52;14.50;99.90
17200;DHT22;8716;52.268;20.968;2022-09-01T01:00:25;14.50;99.90
17200;DHT22;8716;52.268;20.968;2022-09-01T01:02:54;14.50;99.90
17200;DHT22;8716;52.268;20.968;2022-09-01T01:05:26;14.40;99.90
17200;DHT22;8716;52.268;20.968;2022-09-01T01:08:00;14.40;99.90
17200;DHT22;8716;52.268;20.968;2022-09-01T01:10:30;14.40;99.90
17200;DHT22;8716;52.268;20.968;2022-09-01T01:13:00;14.30;99.90
17200;DHT22;8716;52.268;20.968;2022-09-01T01:15:30;14.30;99.90
17200;DHT22;8716;52.268;20.968;2022-09-01T01:17:59;14.20;99.90
17200;DHT22;8716;52.268;20.968;2022-09-01T01:20:30;14.20;99.90
17200;DHT22;8716;52.268;20.968;2022-09-01T01:23:24;14.10;99.90
17200;DHT22;8716;52.268;20.968;2022-09-01T01:25:58;14.10;99.90
17200;DHT22;8716;52.268;20.968;2022-09-01T01:28:31;14.10;99.90
17200;DHT22;8716;52.268;20.968;2022-09-01T01:31:03;14.10;99.90
17200;DHT22;8716;52.268;20.968;2022-09-01T01:33:35;14.00;99.90
17200;DHT22;8716;52.268;20.968;2022-09-01T01:36:10;14.00;99.90
17200;DHT22;8716;52.268;20.968;2022-09-01T01:38:39;14.00;99.90
17200;DHT22;8716;52.268;20.968;2022-09-01T01:41:10;14.00;99.90
17200;DHT22;8716;52.268;20.968;2022-09-01T01:43:40;13.90;99.90
17200;DHT22;8716;52.268;20.968;2022-09-01T01:46:09;13.80;99.90
17200;DHT22;8716;52.268;20.968;2022-09-01T01:48:41;13.80;99.90
17200;DHT22;8716;52.268;20.968;2022-09-01T01:51:10;13.80;99.90
17200;DHT22;8716;52.268;20.968;2022-09-01T01:53:40;13.80;99.90
17200;DHT22;8716;52.268;20.968;2022-09-01T01:56:10;13.80;99.90
17200;DHT22;8716;52.268;20.968;2022-09-01T01:58:39;13.70;99.90
17200;DHT22;8716;52.268;20.968;2022-09-01T02:01:10;13.60;99.90
17200;DHT22;8716;52.268;20.968;2022-09-01T02:03:39;13.60;99.90
17200;DHT22;8716;52.268;20.968;2022-09-01T02:06:09;13.60;99.90
17200;DHT22;8716;52.268;20.968;2022-09-01T02:08:39;13.60;99.90
17200;DHT22;8716;52.268;20.968;2022-09-01T02:11:09;13.60;99.90
17200;DHT22;8716;52.268;20.968;2022-09-01T02:13:39;13.50;99.90
17200;DHT22;8716;52.268;20.968;2022-09-01T02:16:10;13.50;99.90
17200;DHT22;8716;52.268;20.968;2022-09-01T02:18:42;13.50;99.90
17200;DHT22;8716;52.268;20.968;2022-09-01T02:21:16;13.40;99.90
17200;DHT22;8716;52.268;20.968;2022-09-01T02:23:47;13.40;99.90
17200;DHT22;8716;52.268;20.968;2022-09-01T02:26:17;13.30;99.90
17200;DHT22;8716;52.268;20.968;2022-09-01T02:28:50;13.40;99.90
17200;DHT22;8716;52.268;20.968;2022-09-01T02:31:28;13.30;99.90
17200;DHT22;8716;52.268;20.968;2022-09-01T02:33:59;13.30;99.90
17200;DHT22;8716;52.268;20.968;2022-09-01T02:36:28;13.20;99.90
17200;DHT22;8716;52.268;20.968;2022-09-01T02:38:59;13.20;99.90
17200;DHT22;8716;52.268;20.968;2022-09-01T02:41:29;13.20;99.90
17200;DHT22;8716;52.268;20.968;2022-09-01T02:44:01;13.20;99.90
17200;DHT22;8716;52.268;20.968;2022-09-01T02:46:30;13.20;99.90
17200;DHT22;8716;52.268;20.968;2022-09-01T02:48:58;13.10;99.90
17200;DHT22;8716;52.268;20.968;2022-09-01T02:51:27;13.10;99.90
17200;DHT22;8716;52.268;20.968;2022-09-01T02:53:58;13.00;99.90
17200;DHT22;8716;52.268;20.968;2022-09-01T02:56:28;13.00;99.90
17200;DHT22;8716;52.268;20.968;2022-09-01T02:58:56;13.00;99.90
17200;DHT22;8716;52.268;20.968;2022-09-01T03:01:32;13.00;99.90
17200;DHT22;8716;52.268;20.968;2022-09-01T03:04:02;13.00;99.90
17200;DHT22;8716;52.268;20.968;2022-09-01T03:06:36;12.90;99.90
17200;DHT22;8716;52.268;20.968;2022-09-01T03:09:06;12.80;99.90
17200;DHT22;8716;52.268;20.968;2022-09-01T03:11:40;12.90;99.90
17200;DHT22;8716;52.268;20.968;2022-09-01T03:14:08;12.80;99.90
17200;DHT22;8716;52.268;20.968;2022-09-01T03:16:37;12.80;99.90
17200;DHT22;8716;52.268;20.968;2022-09-01T03:19:07;12.80;99.90
17200;DHT22;8716;52.268;20.968;2022-09-01T03:21:40;12.70;99.90
17200;DHT22;8716;52.268;20.968;2022-09-01T03:24:10;12.70;99.90
17200;DHT22;8716;52.268;20.968;2022-09-01T03:26:43;12.70;99.90
17200;DHT22;8716;52.268;20.968;2022-09-01T03:29:16;12.60;99.90
17200;DHT22;8716;52.268;20.968;2022-09-01T03:31:45;12.60;99.90
17200;DHT22;8716;52.268;20.968;2022-09-01T03:34:14;12.60;99.90
17200;DHT22;8716;52.268;20.968;2022-09-01T03:36:49;12.60;99.90
17200;DHT22;8716;52.268;20.968;2022-09-01T03:39:24;12.60;99.90
17200;DHT22;8716;52.268;20.968;2022-09-01T03:41:54;12.50;99.90
17200;DHT22;8716;52.268;20.968;2022-09-01T03:44:24;12.60;99.90
17200;DHT22;8716;52.268;20.968;2022-09-01T03:46:52;12.50;99.90
17200;DHT22;8716;52.268;20.968;2022-09-01T03:49:20;12.50;99.90
17200;DHT22;8716;52.268;20.968;2022-09-01T03:51:54;12.50;99.90
17200;DHT22;8716;52.268;20.968;2022-09-01T03:54:25;12.50;99.90
17200;DHT22;8716;52.268;20.968;2022-09-01T03:56:55;12.50;99.90
17200;DHT22;8716;52.268;20.968;2022-09-01T03:59:26;12.50;99.90
17200;DHT22;8716;52.268;20.968;2022-09-01T04:01:56;12.40;99.90
17200;DHT22;8716;52.268;20.968;2022-09-01T04:04:24;12.50;99.90
17200;DHT22;8716;52.268;20.968;2022-09-01T04:06:52;12.50;99.90
17200;DHT22;8716;52.268;20.968;2022-09-01T04:09:20;12.40;99.90
17200;DHT22;8716;52.268;20.968;2022-09-01T04:11:48;12.40;99.90
17200;DHT22;8716;52.268;20.968;2022-09-01T04:14:21;12.40;99.90
17200;DHT22;8716;52.268;20.968;2022-09-01T04:16:56;12.40;99.90
17200;DHT22;8716;52.268;20.968;2022-09-01T04:19:47;12.40;99.90
17200;DHT22;8716;52.268;20.968;2022-09-01T04:22:15;12.40;99.90
17200;DHT22;8716;52.268;20.968;2022-09-01T04:24:44;12.40;99.90
17200;DHT22;8716;52.268;20.968;2022-09-01T04:27:14;12.40;99.90
17200;DHT22;8716;52.268;20.968;2022-09-01T04:29:45;12.40;99.90
17200;DHT22;8716;52.268;20.968;2022-09-01T04:32:14;12.40;99.90
17200;DHT22;8716;52.268;20.968;2022-09-01T04:34:46;12.50;99.90
17200;DHT22;8716;52.268;20.968;2022-09-01T04:37:19;12.40;99.90
17200;DHT22;8716;52.268;20.968;2022-09-01T04:39:57;12.50;99.90
17200;DHT22;8716;52.268;20.968;2022-09-01T04:42:28;12.50;99.90
17200;DHT22;8716;52.268;20.968;2022-09-01T04:45:02;12.50;99.90
17200;DHT22;8716;52.268;20.968;2022-09-01T04:47:38;12.50;99.90
17200;DHT22;8716;52.268;20.968;2022-09-01T04:50:11;12.50;99.90
17200;DHT22;8716;52.268;20.968;2022-09-01T04:53:03;12.60;99.90
17200;DHT22;8716;52.268;20.968;2022-09-01T04:55:45;12.70;99.90
17200;DHT22;8716;52.268;20.968;2022-09-01T04:58:18;12.70;99.90
17200;DHT22;8716;52.268;20.968;2022-09-01T05:00:49;12.80;99.90
17200;DHT22;8716;52.268;20.968;2022-09-01T05:03:19;12.80;99.90
17200;DHT22;8716;52.268;20.968;2022-09-01T05:06:03;12.80;99.90
17200;DHT22;8716;52.268;20.968;2022-09-01T05:08:34;12.90;99.90
17200;DHT22;8716;52.268;20.968;2022-09-01T05:11:09;13.00;99.90
17200;DHT22;8716;52.268;20.968;2022-09-01T05:13:41;13.00;99.90
17200;DHT22;8716;52.268;20.968;2022-09-01T05:16:15;13.00;99.90
17200;DHT22;8716;52.268;20.968;2022-09-01T05:18:52;13.00;99.90
17200;DHT22;8716;52.268;20.968;2022-09-01T05:21:26;13.00;99.90
17200;DHT22;8716;52.268;20.968;2022-09-01T05:23:57;13.10;99.90
17200;DHT22;8716;52.268;20.968;2022-09-01T05:26:28;13.10;99.90
17200;DHT22;8716;52.268;20.968;2022-09-01T05:28:59;13.10;99.90
17200;DHT22;8716;52.268;20.968;2022-09-01T05:31:34;13.10;99.90
17200;DHT22;8716;52.268;20.968;2022-09-01T05:34:05;13.20;99.90
17200;DHT22;8716;52.268;20.968;2022-09-01T05:36:37;13.20;99.90
17200;DHT22;8716;52.268;20.968;2022-09-01T05:39:09;13.30;99.90
17200;DHT22;8716;52.268;20.968;2022-09-01T05:41:38;13.30;99.90
17200;DHT22;8716;52.268;20.968;2022-09-01T05:44:08;13.30;99.90
17200;DHT22;8716;52.268;20.968;2022-09-01T05:46:38;13.40;99.90
17200;DHT22;8716;52.268;20.968;2022-09-01T05:49:09;13.50;99.90
17200;DHT22;8716;52.268;20.968;2022-09-01T05:51:42;13.50;99.90
17200;DHT22;8716;52.268;20.968;2022-09-01T05:54:17;13.60;99.90
17200;DHT22;8716;52.268;20.968;2022-09-01T05:56:47;13.70;99.90
17200;DHT22;8716;52.268;20.968;2022-09-01T05:59:20;13.70;99.90
17200;DHT22;8716;52.268;20.968;2022-09-01T06:01:58;13.80;99.90
17200;DHT22;8716;52.268;20.968;2022-09-01T06:04:27;13.90;99.90
17200;DHT22;8716;52.268;20.968;2022-09-01T06:07:01;14.00;99.90
17200;DHT22;8716;52.268;20.968;2022-09-01T06:09:43;14.00;99.90
17200;DHT22;8716;52.268;20.968;2022-09-01T06:12:12;14.10;99.90
17200;DHT22;8716;52.268;20.968;2022-09-01T06:14:50;14.20;99.90
17200;DHT22;8716;52.268;20.968;2022-09-01T06:17:23;14.30;99.90
17200;DHT22;8716;52.268;20.968;2022-09-01T06:19:56;14.40;99.90
17200;DHT22;8716;52.268;20.968;2022-09-01T06:22:26;14.50;99.90
17200;DHT22;8716;52.268;20.968;2022-09-01T06:24:57;14.60;99.90
17200;DHT22;8716;52.268;20.968;2022-09-01T06:27:35;14.60;99.90
17200;DHT22;8716;52.268;20.968;2022-09-01T06:30:08;14.80;99.90
17200;DHT22;8716;52.268;20.968;2022-09-01T06:32:49;14.80;99.90
17200;DHT22;8716;52.268;20.968;2022-09-01T06:35:18;14.90;99.90
17200;DHT22;8716;52.268;20.968;2022-09-01T06:37:47;15.00;99.90
17200;DHT22;8716;52.268;20.968;2022-09-01T06:40:38;15.00;99.90
17200;DHT22;8716;52.268;20.968;2022-09-01T06:43:09;15.20;99.90
17200;DHT22;8716;52.268;20.968;2022-09-01T06:45:42;15.30;99.90
17200;DHT22;8716;52.268;20.968;2022-09-01T06:48:12;15.20;99.90
17200;DHT22;8716;52.268;20.968;2022-09-01T06:50:42;15.40;99.90
17200;DHT22;8716;52.268;20.968;2022-09-01T06:53:32;15.40;99.90
17200;DHT22;8716;52.268;20.968;2022-09-01T06:56:03;15.50;99.90
17200;DHT22;8716;52.268;20.968;2022-09-01T06:58:32;15.60;99.90
17200;DHT22;8716;52.268;20.968;2022-09-01T07:01:05;15.70;99.90
17200;DHT22;8716;52.268;20.968;2022-09-01T07:03:35;15.80;99.90
17200;DHT22;8716;52.268;20.968;2022-09-01T07:06:15;15.90;99.90
17200;DHT22;8716;52.268;20.968;2022-09-01T07:09:17;16.10;99.90
17200;DHT22;8716;52.268;20.968;2022-09-01T07:12:27;16.30;99.90
17200;DHT22;8716;52.268;20.968;2022-09-01T07:14:56;16.40;99.90
17200;DHT22;8716;52.268;20.968;2022-09-01T07:17:48;16.40;99.90
17200;DHT22;8716;52.268;20.968;2022-09-01T07:20:25;16.60;99.90
17200;DHT22;8716;52.268;20.968;2022-09-01T07:22:56;16.90;99.90
17200;DHT22;8716;52.268;20.968;2022-09-01T07:25:30;17.10;99.90
17200;DHT22;8716;52.268;20.968;2022-09-01T07:28:39;17.40;99.90
17200;DHT22;8716;52.268;20.968;2022-09-01T07:31:16;17.70;99.90
17200;DHT22;8716;52.268;20.968;2022-09-01T07:34:09;17.80;99.90
17200;DHT22;8716;52.268;20.968;2022-09-01T07:37:02;18.00;99.90
17200;DHT22;8716;52.268;20.968;2022-09-01T07:39:51;18.00;99.90
17200;DHT22;8716;52.268;20.968;2022-09-01T07:42:38;18.00;99.90
17200;DHT22;8716;52.268;20.968;2022-09-01T07:45:45;18.00;99.90
17200;DHT22;8716;52.268;20.968;2022-09-01T07:48:35;18.10;99.90
17200;DHT22;8716;52.268;20.968;2022-09-01T07:51:24;18.20;99.90
17200;DHT22;8716;52.268;20.968;2022-09-01T07:54:04;18.20;99.90
17200;DHT22;8716;52.268;20.968;2022-09-01T07:56:33;18.30;99.90
17200;DHT22;8716;52.268;20.968;2022-09-01T07:59:07;18.30;99.90
17200;DHT22;8716;52.268;20.968;2022-09-01T08:02:16;18.50;99.90
17200;DHT22;8716;52.268;20.968;2022-09-01T08:04:46;18.90;99.90
17200;DHT22;8716;52.268;20.968;2022-09-01T08:07:16;19.20;99.90
17200;DHT22;8716;52.268;20.968;2022-09-01T08:09:46;19.50;99.90
17200;DHT22;8716;52.268;20.968;2022-09-01T08:12:15;19.80;99.90
17200;DHT22;8716;52.268;20.968;2022-09-01T08:14:50;20.00;99.90
17200;DHT22;8716;52.268;20.968;2022-09-01T08:17:40;20.10;99.90
17200;DHT22;8716;52.268;20.968;2022-09-01T08:20:26;20.20;99.90
17200;DHT22;8716;52.268;20.968;2022-09-01T08:23:08;20.20;99.90
17200;DHT22;8716;52.268;20.968;2022-09-01T08:25:39;20.10;99.90
17200;DHT22;8716;52.268;20.968;2022-09-01T08:28:14;20.00;99.90
17200;DHT22;8716;52.268;20.968;2022-09-01T08:30:52;20.80;99.90
17200;DHT22;8716;52.268;20.968;2022-09-01T08:33:23;22.40;99.90
17200;DHT22;8716;52.268;20.968;2022-09-01T08:35:52;24.10;99.90
17200;DHT22;8716;52.268;20.968;2022-09-01T08:38:21;25.70;99.90
17200;DHT22;8716;52.268;20.968;2022-09-01T08:40:54;27.40;99.90
17200;DHT22;8716;52.268;20.968;2022-09-01T08:43:38;28.90;94.10
17200;DHT22;8716;52.268;20.968;2022-09-01T08:46:14;29.40;86.00
17200;DHT22;8716;52.268;20.968;2022-09-01T08:48:47;28.80;81.80
17200;DHT22;8716;52.268;20.968;2022-09-01T08:51:59;28.70;81.40
17200;DHT22;8716;52.268;20.968;2022-09-01T08:54:34;29.60;78.80
17200;DHT22;8716;52.268;20.968;2022-09-01T08:57:10;30.00;75.60
17200;DHT22;8716;52.268;20.968;2022-09-01T08:59:59;30.70;73.30
17200;DHT22;8716;52.268;20.968;2022-09-01T09:02:42;31.30;70.00
17200;DHT22;8716;52.268;20.968;2022-09-01T09:05:34;31.70;67.50
17200;DHT22;8716;52.268;20.968;2022-09-01T09:11:14;30.80;66.80
17200;DHT22;8716;52.268;20.968;2022-09-01T09:14:02;31.00;66.30
17200;DHT22;8716;52.268;20.968;2022-09-01T09:16:36;30.90;64.80
17200;DHT22;8716;52.268;20.968;2022-09-01T09:19:09;30.40;65.40
17200;DHT22;8716;52.268;20.968;2022-09-01T09:21:39;29.90;66.30
17200;DHT22;8716;52.268;20.968;2022-09-01T09:24:11;29.30;66.50
17200;DHT22;8716;52.268;20.968;2022-09-01T09:26:48;28.60;66.60
17200;DHT22;8716;52.268;20.968;2022-09-01T09:29:18;28.00;67.50
17200;DHT22;8716;52.268;20.968;2022-09-01T09:32:01;27.40;68.80
17200;DHT22;8716;52.268;20.968;2022-09-01T09:34:33;27.00;70.50
17200;DHT22;8716;52.268;20.968;2022-09-01T09:37:26;26.80;70.90
17200;DHT22;8716;52.268;20.968;2022-09-01T09:40:03;26.70;71.70
17200;DHT22;8716;52.268;20.968;2022-09-01T09:42:36;26.90;72.10
17200;DHT22;8716;52.268;20.968;2022-09-01T09:45:21;27.20;72.20
17200;DHT22;8716;52.268;20.968;2022-09-01T09:47:52;27.70;71.80
17200;DHT22;8716;52.268;20.968;2022-09-01T09:50:24;28.20;70.50
17200;DHT22;8716;52.268;20.968;2022-09-01T09:53:16;28.50;68.40
17200;DHT22;8716;52.268;20.968;2022-09-01T09:55:55;28.50;65.70
17200;DHT22;8716;52.268;20.968;2022-09-01T09:58:27;28.30;64.80
17200;DHT22;8716;52.268;20.968;2022-09-01T10:01:03;28.30;65.40
17200;DHT22;8716;52.268;20.968;2022-09-01T10:03:39;28.30;65.40
17200;DHT22;8716;52.268;20.968;2022-09-01T10:06:13;28.20;66.10
17200;DHT22;8716;52.268;20.968;2022-09-01T10:08:44;27.90;66.70
17200;DHT22;8716;52.268;20.968;2022-09-01T10:11:28;27.80;66.20
17200;DHT22;8716;52.268;20.968;2022-09-01T10:14:05;27.80;66.70
17200;DHT22;8716;52.268;20.968;2022-09-01T10:16:37;27.80;66.50
17200;DHT22;8716;52.268;20.968;2022-09-01T10:19:11;27.70;67.10
17200;DHT22;8716;52.268;20.968;2022-09-01T10:21:43;27.60;66.80
17200;DHT22;8716;52.268;20.968;2022-09-01T10:24:18;27.40;67.40
17200;DHT22;8716;52.268;20.968;2022-09-01T10:26:57;27.20;67.40
17200;DHT22;8716;52.268;20.968;2022-09-01T10:29:28;26.80;67.00
17200;DHT22;8716;52.268;20.968;2022-09-01T10:32:12;26.60;69.00
17200;DHT22;8716;52.268;20.968;2022-09-01T10:35:03;26.70;68.90
17200;DHT22;8716;52.268;20.968;2022-09-01T10:37:31;26.90;67.70
17200;DHT22;8716;52.268;20.968;2022-09-01T10:40:13;27.00;67.40
17200;DHT22;8716;52.268;20.968;2022-09-01T10:42:48;26.90;66.90
17200;DHT22;8716;52.268;20.968;2022-09-01T10:45:30;27.00;67.00
17200;DHT22;8716;52.268;20.968;2022-09-01T10:48:23;27.10;67.10
17200;DHT22;8716;52.268;20.968;2022-09-01T10:54:56;27.40;65.40
17200;DHT22;8716;52.268;20.968;2022-09-01T10:57:38;27.40;66.00
17200;DHT22;8716;52.268;20.968;2022-09-01T11:00:47;27.40;66.30
17200;DHT22;8716;52.268;20.968;2022-09-01T11:03:50;27.30;65.50
17200;DHT22;8716;52.268;20.968;2022-09-01T11:09:41;27.00;66.30
17200;DHT22;8716;52.268;20.968;2022-09-01T11:15:02;27.00;67.20
17200;DHT22;8716;52.268;20.968;2022-09-01T11:17:35;27.10;66.70
17200;DHT22;8716;52.268;20.968;2022-09-01T11:20:10;27.10;66.00
17200;DHT22;8716;52.268;20.968;2022-09-01T11:22:59;27.00;65.00
17200;DHT22;8716;52.268;20.968;2022-09-01T11:25:41;26.60;65.40
17200;DHT22;8716;52.268;20.968;2022-09-01T11:28:35;26.50;66.20
17200;DHT22;8716;52.268;20.968;2022-09-01T11:31:15;26.60;66.00
17200;DHT22;8716;52.268;20.968;2022-09-01T11:34:02;26.70;65.20
17200;DHT22;8716;52.268;20.968;2022-09-01T11:36:35;26.60;63.60
17200;DHT22;8716;52.268;20.968;2022-09-01T11:39:07;26.40;63.40
17200;DHT22;8716;52.268;20.968;2022-09-01T11:41:51;26.10;63.40
17200;DHT22;8716;52.268;20.968;2022-09-01T11:44:29;25.70;64.60
17200;DHT22;8716;52.268;20.968;2022-09-01T11:47:02;25.40;65.70
17200;DHT22;8716;52.268;20.968;2022-09-01T11:49:39;25.10;65.90
17200;DHT22;8716;52.268;20.968;2022-09-01T11:52:14;24.80;66.30
17200;DHT22;8716;52.268;20.968;2022-09-01T11:54:43;24.50;66.60
17200;DHT22;8716;52.268;20.968;2022-09-01T11:57:18;24.20;66.50
17200;DHT22;8716;52.268;20.968;2022-09-01T11:59:46;24.30;66.70
17200;DHT22;8716;52.268;20.968;2022-09-01T12:02:19;24.30;67.10
17200;DHT22;8716;52.268;20.968;2022-09-01T12:04:49;24.40;66.20
17200;DHT22;8716;52.268;20.968;2022-09-01T12:07:37;24.40;66.80
17200;DHT22;8716;52.268;20.968;2022-09-01T12:10:16;24.60;66.90
17200;DHT22;8716;52.268;20.968;2022-09-01T12:12:46;24.70;66.10
17200;DHT22;8716;52.268;20.968;2022-09-01T12:15:19;24.50;66.10
17200;DHT22;8716;52.268;20.968;2022-09-01T12:17:48;24.30;66.40
17200;DHT22;8716;52.268;20.968;2022-09-01T12:20:22;24.10;67.10
17200;DHT22;8716;52.268;20.968;2022-09-01T12:22:57;23.90;68.00
17200;DHT22;8716;52.268;20.968;2022-09-01T12:25:28;23.90;68.30
17200;DHT22;8716;52.268;20.968;2022-09-01T12:27:59;23.80;69.00
17200;DHT22;8716;52.268;20.968;2022-09-01T12:30:28;23.80;69.20
17200;DHT22;8716;52.268;20.968;2022-09-01T12:32:58;23.80;69.10
17200;DHT22;8716;52.268;20.968;2022-09-01T12:35:46;23.90;69.00
17200;DHT22;8716;52.268;20.968;2022-09-01T12:38:28;24.00;69.10
17200;DHT22;8716;52.268;20.968;2022-09-01T12:40:57;24.10;69.30
17200;DHT22;8716;52.268;20.968;2022-09-01T12:43:27;24.20;68.60
17200;DHT22;8716;52.268;20.968;2022-09-01T12:45:55;24.20;68.70
17200;DHT22;8716;52.268;20.968;2022-09-01T12:48:30;24.30;68.50
17200;DHT22;8716;52.268;20.968;2022-09-01T12:51:01;24.30;68.00
17200;DHT22;8716;52.268;20.968;2022-09-01T12:53:32;24.30;67.50
17200;DHT22;8716;52.268;20.968;2022-09-01T12:56:15;24.20;67.70
17200;DHT22;8716;52.268;20.968;2022-09-01T12:58:48;24.20;67.70
17200;DHT22;8716;52.268;20.968;2022-09-01T13:01:27;24.10;68.00
17200;DHT22;8716;52.268;20.968;2022-09-01T13:04:23;24.00;67.00
17200;DHT22;8716;52.268;20.968;2022-09-01T13:06:53;23.90;67.00
17200;DHT22;8716;52.268;20.968;2022-09-01T13:09:22;23.70;67.40
17200;DHT22;8716;52.268;20.968;2022-09-01T13:11:50;23.50;67.80
17200;DHT22;8716;52.268;20.968;2022-09-01T13:14:34;23.30;68.00
17200;DHT22;8716;52.268;20.968;2022-09-01T13:17:02;23.20;68.80
17200;DHT22;8716;52.268;20.968;2022-09-01T13:19:42;23.10;69.20
17200;DHT22;8716;52.268;20.968;2022-09-01T13:22:10;23.00;69.70
17200;DHT22;8716;52.268;20.968;2022-09-01T13:24:39;22.80;70.00
17200;DHT22;8716;52.268;20.968;2022-09-01T13:27:07;22.70;70.60
17200;DHT22;8716;52.268;20.968;2022-09-01T13:29:52;22.60;71.50
17200;DHT22;8716;52.268;20.968;2022-09-01T13:32:21;22.60;72.30
17200;DHT22;8716;52.268;20.968;2022-09-01T13:34:52;22.60;72.30
17200;DHT22;8716;52.268;20.968;2022-09-01T13:37:21;22.70;71.70
17200;DHT22;8716;52.268;20.968;2022-09-01T13:39:50;22.80;71.30
17200;DHT22;8716;52.268;20.968;2022-09-01T13:42:19;22.80;71.50
17200;DHT22;8716;52.268;20.968;2022-09-01T13:44:51;22.80;71.80
17200;DHT22;8716;52.268;20.968;2022-09-01T13:47:23;22.90;70.60
17200;DHT22;8716;52.268;20.968;2022-09-01T13:49:56;23.00;70.50
17200;DHT22;8716;52.268;20.968;2022-09-01T13:52:35;23.10;70.40
17200;DHT22;8716;52.268;20.968;2022-09-01T13:55:07;23.20;70.60
17200;DHT22;8716;52.268;20.968;2022-09-01T13:57:36;23.20;70.80
17200;DHT22;8716;52.268;20.968;2022-09-01T14:00:07;23.20;71.40
17200;DHT22;8716;52.268;20.968;2022-09-01T14:02:38;23.10;72.00
17200;DHT22;8716;52.268;20.968;2022-09-01T14:05:07;23.00;72.50
17200;DHT22;8716;52.268;20.968;2022-09-01T14:07:35;22.90;73.80
17200;DHT22;8716;52.268;20.968;2022-09-01T14:10:06;22.70;73.40
17200;DHT22;8716;52.268;20.968;2022-09-01T14:12:34;22.50;73.40
17200;DHT22;8716;52.268;20.968;2022-09-01T14:15:04;22.40;74.00
17200;DHT22;8716;52.268;20.968;2022-09-01T14:17:44;22.20;74.30
17200;DHT22;8716;52.268;20.968;2022-09-01T14:20:16;22.10;74.50
17200;DHT22;8716;52.268;20.968;2022-09-01T14:22:45;22.00;74.80
17200;DHT22;8716;52.268;20.968;2022-09-01T14:25:15;21.90;75.20
17200;DHT22;8716;52.268;20.968;2022-09-01T14:27:43;21.90;75.40
17200;DHT22;8716;52.268;20.968;2022-09-01T14:30:15;21.90;75.40
17200;DHT22;8716;52.268;20.968;2022-09-01T14:32:44;21.90;75.50
17200;DHT22;8716;52.268;20.968;2022-09-01T14:35:13;21.90;75.70
17200;DHT22;8716;52.268;20.968;2022-09-01T14:37:41;22.00;75.60
17200;DHT22;8716;52.268;20.968;2022-09-01T14:40:15;21.90;75.30
17200;DHT22;8716;52.268;20.968;2022-09-01T14:42:45;21.90;75.50
17200;DHT22;8716;52.268;20.968;2022-09-01T14:45:16;21.90;75.70
17200;DHT22;8716;52.268;20.968;2022-09-01T14:47:49;22.00;75.70
17200;DHT22;8716;52.268;20.968;2022-09-01T14:50:18;22.20;75.30
17200;DHT22;8716;52.268;20.968;2022-09-01T14:52:51;22.20;75.10
17200;DHT22;8716;52.268;20.968;2022-09-01T14:55:26;22.20;74.90
17200;DHT22;8716;52.268;20.968;2022-09-01T14:57:55;22.30;74.90
17200;DHT22;8716;52.268;20.968;2022-09-01T15:00:24;22.40;74.90
17200;DHT22;8716;52.268;20.968;2022-09-01T15:02:53;22.40;73.70
17200;DHT22;8716;52.268;20.968;2022-09-01T15:05:22;22.50;73.30
17200;DHT22;8716;52.268;20.968;2022-09-01T15:07:51;22.50;73.00
17200;DHT22;8716;52.268;20.968;2022-09-01T15:10:22;22.60;72.80
17200;DHT22;8716;52.268;20.968;2022-09-01T15:12:54;22.60;72.50
17200;DHT22;8716;52.268;20.968;2022-09-01T15:15:23;22.60;72.40
17200;DHT22;8716;52.268;20.968;2022-09-01T15:17:52;22.50;72.00
17200;DHT22;8716;52.268;20.968;2022-09-01T15:20:20;22.50;71.90
17200;DHT22;8716;52.268;20.968;2022-09-01T15:23:06;22.40;71.40
17200;DHT22;8716;52.268;20.968;2022-09-01T15:25:34;22.40;71.50
17200;DHT22;8716;52.268;20.968;2022-09-01T15:28:04;22.40;71.60
17200;DHT22;8716;52.268;20.968;2022-09-01T15:30:32;22.40;71.90
17200;DHT22;8716;52.268;20.968;2022-09-01T15:33:01;22.40;72.30
17200;DHT22;8716;52.268;20.968;2022-09-01T15:35:30;22.30;72.50
17200;DHT22;8716;52.268;20.968;2022-09-01T15:37:59;22.20;72.80
17200;DHT22;8716;52.268;20.968;2022-09-01T15:40:30;22.10;73.10
17200;DHT22;8716;52.268;20.968;2022-09-01T15:42:58;21.90;73.50
17200;DHT22;8716;52.268;20.968;2022-09-01T15:45:28;21.80;73.70
17200;DHT22;8716;52.268;20.968;2022-09-01T15:47:56;21.80;74.10
17200;DHT22;8716;52.268;20.968;2022-09-01T15:50:27;21.70;74.60
17200;DHT22;8716;52.268;20.968;2022-09-01T15:52:57;21.60;74.50
17200;DHT22;8716;52.268;20.968;2022-09-01T15:55:29;21.60;74.60
17200;DHT22;8716;52.268;20.968;2022-09-01T15:57:57;21.50;75.10
17200;DHT22;8716;52.268;20.968;2022-09-01T16:00:28;21.50;75.40
17200;DHT22;8716;52.268;20.968;2022-09-01T16:02:57;21.50;75.10
17200;DHT22;8716;52.268;20.968;2022-09-01T16:05:28;21.40;75.10
17200;DHT22;8716;52.268;20.968;2022-09-01T16:07:56;21.40;75.40
17200;DHT22;8716;52.268;20.968;2022-09-01T16:10:24;21.30;75.30
17200;DHT22;8716;52.268;20.968;2022-09-01T16:12:53;21.20;75.30
17200;DHT22;8716;52.268;20.968;2022-09-01T16:15:23;21.20;75.70
17200;DHT22;8716;52.268;20.968;2022-09-01T16:18:14;21.10;75.70
17200;DHT22;8716;52.268;20.968;2022-09-01T16:20:49;21.10;75.90
17200;DHT22;8716;52.268;20.968;2022-09-01T16:23:22;21.00;76.00
17200;DHT22;8716;52.268;20.968;2022-09-01T16:25:50;21.00;75.90